LIED/DCI METAR and TAF weather

Enter ICAO airport designator
Station Type Date Time Source
LIED METAR 2019/06/17 11:55 UTC NOAA

LIED 171155Z 25003KT 9999 FEW030 31/11 Q1015


Station Type Date Time Source
LIED Decoded METAR 2019/06/17 11:55 UTC NOAA

Decimomannu, Italy (LIED) 39-21N 008-58E 28M
Jun 17, 2019 - 07:55 AM EDT / 2019.06.17 1155 UTC
Wind: from the WSW (250 degrees) at 3 MPH (3 KT):0
Visibility: greater than 7 mile(s):0
Sky conditions: mostly clear
Temperature: 87 F (31 C)
Dew Point: 51 F (11 C)
Relative Humidity: 29%
Pressure (altimeter): 29.97 in. Hg (1015 hPa)
ob: LIED 171155Z 25003KT 9999 FEW030 31/11 Q1015
cycle: 12

Station Type Date Time Source
LIED TAF 2015/03/04 18:18 UTC NOAA

TAF TAF LIED 041700Z 0418/0506 33014KT 9999 SCT020 BKN040 BKN060
TEMPO 0420/0502 33020KT 5000 RA OR SHRA FEW022CB

Example: see airport list